mattdh12's sites:

title views votes rating creation
?mj visits quiznos 3,207 50 (4.28)  2014-10-14
?conan news 2,382 58 (3.88)  2013-04-01
?roulette 7,983 94 (4.48)  2013-01-06
?my new text message notification sound 1,589 33 (3.76)  2012-07-22
?bob dole gets a haircut 4,307 76 (4.13)  2011-07-18
?tampa bay opening day 1,781 41 (4.27)  2011-04-12
?clock tower ringing OF THE FUTURE 3,386 37 (4.19)  2010-11-05
?record sounds: the record 1,677 34 (4.29)  2010-04-07
?winston churchill revenge part 2 - WINSTON CHU... 1,228 26 (4.35)  2009-10-24
?winston churchill revenge part 1 - WINSTON CHU... 1,694 22 (4.18)  2009-10-24
?Homeless People HATE the Super Bowl 1,339 55 (4.33)  2009-09-02
?tourney3: cone n jokes for the metal demographic 1,458 25 (4.52)  2009-07-26
?tourney3: shakespeare's forgotten last dram... 3,364 75 (4.07)  2009-07-16
?Lady Gaga - Poker Face (a Kevin Federline remix) 7,443 73 (3.96)  2009-03-22
?fight themed ytmnd for the photoshop tournament c... 1,467 44 (4.20)  2009-01-18
?(nsfw) 2008 yelling bee 4,211 168 (4.01)  2008-11-16
?mario makes a sandwich 27,255 748 (4.26)  2008-08-13
?best ytnmd ever 6,102 146 (4.49)  2008-07-14
?3:00 drinkin dat soda 1,545 45 (4.22)  2008-06-02
?(nsfw) idiot hallo"weiner" "tps&quot... 4,592 123 (3.89)  2008-05-29
?mitch hedberg "moves tha crowd" (with l... 2,163 44 (4.30)  2008-04-22
?Tiger Woods Putt To Win Arnie Palson Tourname... 5,355 60 (4.22)  2008-04-03
?"u"tube duel 2,186 97 (4.03)  2008-03-03
?work safety 5,478 216 (4.15)  2008-01-20
?shaq gives birth 11,068 332 (4.13)  2008-01-01
?guy who milks cows grabs the wrong bucket and a... 3,490 86 (4.20)  2007-12-17
?raige aganest the machines final concert [full video] ... 1,240 39 (4.21)  2007-12-09
?trebeks thanksgiving 1,421 45 (4.11)  2007-11-23
?shaq zone 34,346 974 (4.42)  2007-11-12
?Part 3: "Funny Show: The Show": Epis... 719 28 (4.21)  2007-11-05
?Part 2: "Funny Show: The Show": Epis... 722 24 (4.17)  2007-11-05
?Part 1: "Funny Show: The Show": Epis... 2,501 85 (4.21)  2007-11-05
?the patty melt song 695 21 (3.76)  2007-10-18
?Mario Gets Revenge On Neo 1,466 47 (4.06)  2007-10-15
?HOOOOOOOONK! OOOOOOOOH! 1,881 45 (4.38)  2007-10-12
?(nsfw) kramer gets the wrong script but it doesnt m... 6,332 111 (4.04)  2007-10-06
?[b](nsfw)[/b] Alternate Ending to the Hit Film "... 22,681 91 (4.15)  2007-09-21
?PART 1: BEST BEATS (i win, best cannot be BE... 665 31 (4.10)  2007-09-13
?tight 843 24 (3.83)  2007-09-08
?Sp"y": "der man" 4 IN 3-D 1,036 25 (4.28)  2007-08-25
?Your Mom ft. Dyslexia - Light My Fire [LIVE] 1,052 45 (3.89)  2007-08-19
?scene from ""A Jerk"" 802 29 (3.97)  2007-08-18
?doctor gets sunburned and gives sun a "taste... 3,702 154 (4.10)  2007-08-09
?bob barker as a contestant on the new price is right 6,546 78 (4.04)  2007-07-17
?captain jean luc picard plays 3D Pinball for Window... 6,163 67 (4.01)  2007-07-08
?cant brake treadmill guys stride 1,012 27 (3.30)  2007-07-03
?(nsfw) blank space 2,689 76 (3.99)  2007-06-29
?exciting infinite lap race 839 25 (4.04)  2007-06-12
?funky furniture 1,678 88 (3.84)  2007-06-09
?a biker jumps too far 1,322 54 (4.17)  2007-05-25
?Ending to Se7en in German (with subtitles) 1,352 33 (4.00)  2007-05-18
?carlos mencia steals from websters joke book? 3,783 35 (4.11)  2007-05-12
?a plate fight for the ages 2,629 36 (3.97)  2007-05-07
?my title was too long so i put it in the description 11,930 205 (3.89)  2007-05-06
?YTMND.dot.fce 1,196 63 (3.89)  2007-05-02
?(nsfw) jared does the 30 second version of a comm... 3,581 106 (3.96)  2007-05-01
?extreme street jumping with big daddy gramps 1,026 16 (4.06)  2007-04-28
?put hat on "head" 815 34 (4.15)  2007-04-11
?pizza guy performs coltrane but is blWHOAn awa... 3,805 44 (4.25)  2007-04-10
?mitch hedberg says some words but the crowd doe... 1,215 30 (3.57)  2007-04-04
?(nsfw) i get my first birdie in tiger woods 2007 and fe... 3,864 56 (4.04)  2007-04-04
?Photoshop Contest 1,851 40 (3.73)  2007-03-28
?chief (updated title, no longer says dew army in par... 975 29 (3.90)  2007-03-25
?(nsfw) customer tries to order bread but the waiter ... 2,860 35 (3.97)  2007-03-21
?We just might be trapped 909 27 (3.67)  2007-03-19
?my grandpa experiments with a snowy sandwich be... 3,040 38 (3.89)  2007-03-18
?If the Movie Speed was Realistic 1,151 37 (4.14)  2007-03-13
?Comedy General Hospital with Major Budget Cuts In... 1,021 31 (4.03)  2007-03-07
?Picture Time at the Library 862 35 (3.49)  2007-03-05
?I AM GOING TO SUE YOU'R CAT!!! a dra... 3,720 41 (3.39)  2007-03-04
?My Balloons and Me 1,119 39 (4.31)  2007-02-26
?Macromedia Flash Noise Tutorial 2,802 61 (3.92)  2007-02-21
?A NEW FAD SITE LOL FOR THE NEW FAD 1,207 51 (3.92)  2007-02-20
?My Favorite Kill Bill Scene 3,272 75 (4.12)  2007-02-16
?(nsfw) AAHHK 1,711 34 (4.24)  2007-02-15
?LAUGHING CLOCK NO WAY LOL NOT FAKE 1,493 39 (3.82)  2007-02-13
?Bart's Mortal Enemy 16,376 352 (3.79)  2007-02-11
?THE AXE EFFECT 880 17 (3.65)  2007-02-11
?scanimation 818 37 (4.16)  2007-02-09
?THREE MINUTE COMIXS 1,240 32 (4.06)  2007-02-07
?THE SECOND FINAL BATTLE 1,411 32 (4.09)  2007-02-06
?Popular 906 32 (4.13)  2007-02-04
?Funeral 1,810 43 (4.19)  2007-01-28
?local on the 8s? more like...local voat 5 on this ytm... 1,270 61 (3.77)  2007-01-27
?(nsfw) ATTENTION YTMND: NSFW 14,087 64 (3.91)  2007-01-21
?THE FIRST FINAL BATTLE 1,176 30 (3.93)  2007-01-21
?fresh prince of square wave 1,549 44 (3.73)  2007-01-20
?will smith says uh what woo and haha a lot 24,722 460 (4.23)  2007-01-18
?SWEET SASSY MOLASSY 1,110 36 (3.64)  2007-01-17
?three things happen: jorge plays fast money, you v... 1,534 62 (4.11)  2007-01-15
?FUNNIE BAGELS WITH ZAZAZA ADDED LOL ... 3,015 36 (3.72)  2007-01-15
?Teenage Mustard Ninja Jorge Busch and Aleksand... 1,882 83 (3.78)  2007-01-06
?The World is Flat 8,884 460 (4.33)  2007-01-03
?NEW SITCOM 1,183 25 (3.88)  2007-01-02
?PlREEEEEEEEEase. KHAN am NOOOOOOOgof... 1,147 39 (3.62)  2006-12-29
?oj simpson was GUILTY 886 22 (3.45)  2006-12-28
?these rocket balloons are perfect, what more could... 2,808 26 (4.00)  2006-12-23
?(nsfw) jon carrie atemps to billd a grand carrielition in... 4,282 132 (3.68)  2006-12-22
?some person enjoys a ytmnd of an object without a ... 1,236 39 (3.74)  2006-12-21
?test site 1,057 34 (3.94)  2006-12-20
?Trick Shot Magic 1,063 32 (3.47)  2006-12-17
?WHAT WAS I THINKING? 1,788 63 (4.22)  2006-11-29
?famly um uh feyoud 864 29 (4.00)  2006-11-28
?(nsfw) DANCING SUNGLASSES 1,463 36 (3.67)  2006-11-28
?SHE FORGOT MY WATCH 802 31 (3.90)  2006-11-27
?jon carrie plays grand carrielition sweeper but loses ... 1,674 81 (3.96)  2006-11-24
?Jared is Gaining Weight Again 7,751 298 (3.86)  2006-11-23
?Pancake Fiction (Part 2) 1,057 19 (3.68)  2006-11-22
?Pancake Fiction (Part 1) 1,054 18 (4.00)  2006-11-21
?i put tons of effort into this 573 22 (3.64)  2006-11-20
?Jorge busch wants to buy a grand carrielition, but v... 1,461 85 (3.45)  2006-11-19
?A Very Square YTMND 782 29 (3.21)  2006-11-18
?PS3 on ebay will retail for... 7,339 85 (3.76)  2006-11-17
?Future Crocodile-O'Brien doesn't care... 1,131 39 (3.85)  2006-11-14
?Link finds a... what the hell is that? 1,468 35 (3.63)  2006-11-14
?Conan is...A TALK SHOW HOST 2,037 54 (4.06)  2006-11-11
?the guy who plays khan gets sick so borat plays hi... 3,122 35 (3.86)  2006-11-11
?WHICH CLOCK IS REAL 11,137 296 (3.31)  2006-11-09
?MY ENTRIE #! FOR BORAT CONTEST 1,699 46 (3.65)  2006-11-08
?HUGE TRUCK CRASH 2,382 69 (4.16)  2006-11-05
?EARTHQUAKE but some fat guy is too hungry to ... 808 20 (3.65)  2006-11-03
?Dean Wave 11,961 493 (4.35)  2006-11-01
?NBA Jam Returns 3,532 86 (3.81)  2006-10-31
?COOL MUSIC VIDEO 871 22 (3.95)  2006-10-30
?test site dont vote 1,219 41 (3.80)  2006-10-29
?how to eat an air conditioner in under 62 seconds 2,372 80 (3.33)  2006-10-29
?jorge busch shoots a +5 and at the same time teach... 1,529 82 (3.93)  2006-10-27
?KHAN-KHAN DANCE 860 43 (3.14)  2006-10-24
?Skating 744 22 (3.91)  2006-10-24
?(Voated5) How to prank Jon Carrie 19,615 566 (3.74)  2006-10-22
?Jared interviews some guy 1,206 54 (3.96)  2006-10-20
?Jared is DISGUSTED by the amount of grams 2,984 135 (3.92)  2006-10-20
?What Shaq Thinks of Kobe's CD 1,623 20 (3.70)  2006-10-19
?Alligator ate my Playmobil 1,196 32 (3.75)  2006-10-17
?SO UGLY 717 21 (3.62)  2006-10-17
?mitch hedberg tells a funny joke and the audience k... 1,413 41 (3.27)  2006-10-16
?George's Answering Machine 1,579 44 (3.75)  2006-10-15
?Low Budget Movie 732 27 (3.67)  2006-10-15
?ITS A TTSRAP 986 26 (4.08)  2006-10-15
?Too Much Orange Soda 1,158 45 (3.64)  2006-10-13
?KHAAAAAAAAAAAAAAAAAAAAAAAAA... 3,238 59 (4.10)  2006-10-11
?how jared really did it 1,212 32 (3.28)  2006-10-10
?Workout 1,104 41 (3.80)  2006-10-08
?Home Alone 5 Trailer 3,751 80 (3.48)  2006-10-07
?B.W.A. - Forgot the Polend (but not the 5s) 883 47 (3.70)  2006-10-04
?These Pretzels are Making You VOAT 5 1,695 98 (3.98)  2006-10-01
?My Relaxation Page 1,363 62 (3.56)  2006-09-29
?Jump Rope 1,402 38 (3.76)  2006-09-25
?Khan Goes to the Zoo 754 27 (3.37)  2006-09-19
?polend price is rong (part 5 of 5) 2,104 94 (3.97)  2006-09-15
?jon carrie forgot polend because of football 1,454 87 (3.60)  2006-09-09
?A New Kind of Tool 1,265 24 (3.46)  2006-09-07
?Scarface (short version) 1,045 26 (3.08)  2006-09-05
?Mr. Sparkle Song 4,466 47 (3.91)  2006-09-03
?(nsfw) Poland Bulls win at the buzzer (vote 5 for fa... 2,044 81 (3.91)  2006-08-29
?We're going to Poland, PLEASE VOT... 2,512 120 (3.23)  2006-08-20
?aliens polandize the world and make you vote 5 1,322 58 (3.60)  2006-08-19
?Federline Remembered Poland 3,775 111 (4.01)  2006-08-18
?Will Smith Gets 'Jiggy' with 'It&... 1,561 46 (3.46)  2006-08-13
?ce ytmnd est français 1,062 31 (2.06)  2006-08-12
?Daddy Jackson 832 27 (3.48)  2006-08-10
?The Who feat. Arnold - Who Are You? 17,860 431 (4.07)  2006-07-28
?Hippie Phil 5,653 38 (4.24)  2006-07-28
?Saget performs on AFV 1,382 36 (3.81)  2006-07-27
?Arnold is too strong for Price is Right 19,037 403 (4.01)  2006-07-25
?Your legacy? 1,810 37 (3.76)  2006-07-16
?What's the worst that could happen? 1,212 50 (3.42)  2006-07-16
?RollerCoaster Diecoon 13,940 494 (4.16)  2006-07-13
?Heffer Has No Manners (view in ie) 1,504 28 (3.32)  2006-07-12
?Tightening up graphics is a bad job 1,996 40 (3.58)  2006-07-05
?The REAL Reason the Great Wall of China was B... 17,705 493 (4.07)  2006-07-04
?Die Hard: With a Censorship 14,827 450 (4.20)  2006-04-28
?snakes on my burger 64,517 1,933 (4.32)  2006-04-03
?E.L.: Flying Lobsters 1,436 70 (3.33)  2006-03-31
?Wheres the cake? 1,601 60 (3.27)  2006-03-18
?spy on your friends! 25,893 849 (4.22)  2006-01-15
?Conan Grew a Mustache 2,564 56 (3.50)  2006-01-07
?Will Smith Buys Cheese 4,096 72 (3.68)  2005-12-27
?BINGO BANGO BONGO 2,220 46 (3.37)  2005-12-17
?YUO KHAN DO IT 5,866 100 (3.81)  2005-12-06
?"Im black yall" 8,693 81 (3.69)  2005-11-22
?push it 3,113 47 (3.04)  2005-10-05
?no idea 1,187 42 (2.88)  2005-09-24